createdAt,value
2022-08-05T00:03:25.352Z,100202.63
2022-08-05T00:08:35.258Z,100200.51
2022-08-05T00:14:02.176Z,100187.27
2022-08-05T00:19:24.893Z,100180.38
2022-08-05T00:25:12.787Z,100173.30
2022-08-05T00:30:21.273Z,100174.41
2022-08-05T00:35:37.537Z,100168.24
2022-08-05T00:41:01.420Z,100167.31
2022-08-05T00:46:03.849Z,100166.04
2022-08-05T00:51:08.856Z,100167.54
2022-08-05T00:56:31.352Z,100161.04
2022-08-05T01:06:51.804Z,100160.26
2022-08-05T01:12:09.111Z,100154.58
2022-08-05T01:17:21.527Z,100156.23
2022-08-05T01:22:28.125Z,100152.89
2022-08-05T01:28:07.068Z,100155.75
2022-08-05T01:33:12.477Z,100151.08
2022-08-05T01:38:43.827Z,100148.74
2022-08-05T01:43:49.896Z,100141.42
2022-08-05T01:48:54.545Z,100140.89
2022-08-05T01:53:59.466Z,100133.20
2022-08-05T01:59:16.384Z,100130.17
2022-08-05T02:04:21.008Z,100127.95
2022-08-05T02:09:45.750Z,100127.48
2022-08-05T02:15:12.486Z,100123.91
2022-08-05T02:20:22.172Z,100125.27
2022-08-05T02:25:33.089Z,100118.85
2022-08-05T02:31:08.183Z,100117.65
2022-08-05T02:36:20.603Z,100113.88
2022-08-05T02:46:53.340Z,100119.23
2022-08-05T02:52:06.270Z,100112.92
2022-08-05T02:58:20.022Z,100110.64
2022-08-05T03:02:52.810Z,100104.65
2022-08-05T03:08:01.430Z,100098.06
2022-08-05T03:13:16.572Z,100095.54
2022-08-05T03:18:24.726Z,100098.91
2022-08-05T03:23:34.637Z,100096.73
2022-08-05T03:28:37.179Z,100097.89
2022-08-05T03:33:51.310Z,100099.59
2022-08-05T03:38:55.715Z,100101.86
2022-08-05T03:44:08.533Z,100103.79
2022-08-05T03:49:14.883Z,100105.42
2022-08-05T03:56:03.615Z,100104.65
2022-08-05T04:00:15.546Z,100103.16
2022-08-05T04:05:23.133Z,100108.42
2022-08-05T04:10:28.395Z,100106.73
2022-08-05T04:16:03.362Z,100103.38
2022-08-05T04:21:07.251Z,100108.02
2022-08-05T04:26:18.638Z,100105.46
2022-08-05T04:31:21.315Z,100109.41
2022-08-05T04:36:49.827Z,100110.58
2022-08-05T04:41:52.918Z,100110.81
2022-08-05T04:46:59.282Z,100106.08
2022-08-05T04:52:01.731Z,100104.38
2022-08-05T04:57:04.246Z,100098.02
2022-08-05T05:02:37.136Z,100099.48
2022-08-05T05:07:35.608Z,100102.84
2022-08-05T05:12:47.331Z,100105.27
2022-08-05T05:17:56.335Z,100115.41
2022-08-05T05:23:08.380Z,100115.98
2022-08-05T05:28:25.317Z,100113.66
2022-08-05T05:33:28.013Z,100110.81
2022-08-05T05:39:00.172Z,100113.19
2022-08-05T05:44:02.904Z,100114.80
2022-08-05T05:49:28.847Z,100114.21
2022-08-05T05:54:50.893Z,100108.99
2022-08-05T06:00:01.330Z,100108.58
2022-08-05T06:05:16.604Z,100118.98
2022-08-05T06:10:52.558Z,100117.80
2022-08-05T06:21:08.027Z,100110.73
2022-08-05T06:26:25.138Z,100108.98
2022-08-05T06:31:41.900Z,100110.46
2022-08-05T06:36:57.657Z,100111.32
2022-08-05T06:42:07.496Z,100120.08
2022-08-05T06:47:30.265Z,100113.35
2022-08-05T06:52:38.018Z,100108.77
2022-08-05T06:58:03.578Z,100107.39
2022-08-05T07:03:05.288Z,100102.83
2022-08-05T07:08:12.111Z,100101.02
2022-08-05T07:13:58.515Z,100102.80
2022-08-05T07:19:02.864Z,100102.69
2022-08-05T07:24:12.021Z,100103.45
2022-08-05T07:29:15.910Z,100100.67
2022-08-05T07:34:21.275Z,100099.97
2022-08-05T07:40:04.463Z,100097.71
2022-08-05T07:44:52.513Z,100093.98
2022-08-05T07:49:54.898Z,100091.67
2022-08-05T07:54:57.358Z,100094.45
2022-08-05T08:00:35.386Z,100098.00
2022-08-05T08:05:49.698Z,100093.84
2022-08-05T08:10:55.410Z,100097.00
2022-08-05T08:16:35.545Z,100090.94
2022-08-05T08:21:20.581Z,100090.45
2022-08-05T08:26:59.959Z,100087.41
2022-08-05T08:32:45.577Z,100083.48
2022-08-05T08:38:05.627Z,100081.27
2022-08-05T08:45:04.465Z,100075.61
2022-08-05T08:49:03.019Z,100065.83
2022-08-05T08:53:58.799Z,100067.04
2022-08-05T08:59:14.989Z,100059.46
2022-08-05T09:04:30.455Z,100057.48
2022-08-05T09:09:40.754Z,100052.57
2022-08-05T09:14:58.676Z,100052.27
2022-08-05T09:20:05.714Z,100048.35
2022-08-05T09:25:24.574Z,100050.79
2022-08-05T09:31:22.459Z,100046.67
2022-08-05T09:36:59.716Z,100044.50
2022-08-05T09:42:07.756Z,100046.20
2022-08-05T09:52:29.104Z,100027.77
2022-08-05T09:57:39.513Z,100027.04
2022-08-05T10:02:45.058Z,100026.70
2022-08-05T10:08:35.741Z,100026.17
2022-08-05T10:13:44.053Z,100020.02
2022-08-05T10:18:53.168Z,100019.98
2022-08-05T10:24:15.051Z,100008.88
2022-08-05T10:29:24.147Z,100007.63
2022-08-05T10:34:45.248Z,100003.15
2022-08-05T10:40:03.308Z,99997.39
2022-08-05T10:45:40.044Z,99988.50
2022-08-05T10:51:03.338Z,99993.84
2022-08-05T10:56:21.405Z,99981.92
2022-08-05T11:02:03.650Z,99974.92
2022-08-05T11:07:11.258Z,99967.85
2022-08-05T11:12:54.345Z,99968.02
2022-08-05T11:18:27.292Z,99963.60
2022-08-05T11:24:04.145Z,99953.96
2022-08-05T11:29:21.900Z,99953.86
2022-08-05T11:34:39.020Z,99952.48
2022-08-05T11:40:02.845Z,99945.94
2022-08-05T11:50:38.399Z,99926.38
2022-08-05T11:56:01.248Z,99930.30
2022-08-05T12:01:08.321Z,99935.69
2022-08-05T12:06:16.672Z,99940.90
2022-08-05T12:11:50.404Z,99933.06
2022-08-05T12:18:03.077Z,99933.01
2022-08-05T12:22:36.788Z,99931.78
2022-08-05T12:28:03.326Z,99915.13
2022-08-05T12:33:07.247Z,99907.94
2022-08-05T12:38:30.196Z,99907.52
2022-08-05T12:43:34.529Z,99900.23
2022-08-05T12:48:42.617Z,99911.75
2022-08-05T12:53:47.364Z,99909.81
2022-08-05T12:59:21.094Z,99910.52
2022-08-05T13:04:32.509Z,99911.05
2022-08-05T13:09:45.893Z,99904.73
2022-08-05T13:15:06.713Z,99896.27
2022-08-05T13:20:40.964Z,99894.75
2022-08-05T13:26:03.431Z,99884.74
2022-08-05T13:31:14.438Z,99881.77
2022-08-05T13:36:18.353Z,99881.06
2022-08-05T13:41:20.936Z,99873.71
2022-08-05T13:47:04.807Z,99867.23
2022-08-05T13:52:15.794Z,99855.17
2022-08-05T13:57:26.480Z,99842.85
2022-08-05T14:02:55.182Z,99848.11
2022-08-05T14:08:05.853Z,99841.66
2022-08-05T14:13:11.072Z,99841.86
2022-08-05T14:18:48.353Z,99833.34
2022-08-05T14:23:57.157Z,99833.23
2022-08-05T14:29:03.604Z,99830.34
2022-08-05T14:34:06.031Z,99832.40
2022-08-05T14:39:14.555Z,99839.77
2022-08-05T14:44:27.874Z,99827.51
2022-08-05T14:49:56.759Z,99836.69
2022-08-05T14:55:02.560Z,99835.95
2022-08-05T15:00:29.435Z,99828.91
2022-08-05T15:06:12.948Z,99825.70
2022-08-05T15:10:59.505Z,99828.20
2022-08-05T15:16:05.946Z,99831.63
2022-08-05T15:21:09.683Z,99827.38
2022-08-05T15:26:12.137Z,99828.67
2022-08-05T15:31:17.629Z,99827.05
2022-08-05T15:43:45.843Z,99818.49
2022-08-05T15:48:52.493Z,99825.30
2022-08-05T15:54:34.476Z,99820.25
2022-08-05T15:59:38.173Z,99821.45
2022-08-05T16:05:11.239Z,99823.27
2022-08-05T16:10:17.334Z,99827.10
2022-08-05T16:15:35.701Z,99827.55
2022-08-05T16:20:38.120Z,99826.89
2022-08-05T16:26:11.011Z,99814.70
2022-08-05T16:31:22.176Z,99805.70
2022-08-05T16:36:44.589Z,99799.29
2022-08-05T16:42:27.626Z,99788.82
2022-08-05T16:47:28.918Z,99783.39
2022-08-05T16:52:36.643Z,99782.52
2022-08-05T16:57:59.883Z,99774.46
2022-08-05T17:03:04.656Z,99769.15
2022-08-05T17:13:37.658Z,99760.29
2022-08-05T17:18:43.854Z,99759.64
2022-08-05T17:24:04.370Z,99760.87
2022-08-05T17:29:11.528Z,99761.94
2022-08-05T17:34:17.847Z,99756.92
2022-08-05T17:40:26.296Z,99751.92
2022-08-05T17:45:38.465Z,99747.45
2022-08-05T17:50:41.632Z,99750.44
2022-08-05T17:55:44.399Z,99751.30
2022-08-05T18:00:50.508Z,99757.06
2022-08-05T18:05:56.515Z,99757.88
2022-08-05T18:11:23.701Z,99758.19
2022-08-05T18:16:51.503Z,99768.98
2022-08-05T18:22:08.499Z,99773.59
2022-08-05T18:27:18.728Z,99773.15
2022-08-05T18:32:28.255Z,99774.96
2022-08-05T18:37:40.305Z,99777.48
2022-08-05T18:42:52.227Z,99777.57
2022-08-05T18:47:56.429Z,99774.86
2022-08-05T18:52:59.641Z,99775.95
2022-08-05T18:58:03.665Z,99778.42
2022-08-05T19:03:55.650Z,99772.02
2022-08-05T19:09:08.434Z,99768.08
2022-08-05T19:14:59.594Z,99768.92
2022-08-05T19:19:37.288Z,99763.83
2022-08-05T19:27:44.815Z,99764.31
2022-08-05T19:32:47.485Z,99763.31
2022-08-05T19:38:06.082Z,99760.86
2022-08-05T19:43:09.838Z,99764.64
2022-08-05T19:48:48.446Z,99761.17
2022-08-05T19:54:05.303Z,99764.09
2022-08-05T19:59:51.097Z,99766.73
2022-08-05T20:04:34.781Z,99764.72
2022-08-05T20:09:54.788Z,99757.70
2022-08-05T20:15:13.602Z,99757.88
2022-08-05T20:20:19.081Z,99753.88
2022-08-05T20:25:24.699Z,99751.04
2022-08-05T20:31:03.711Z,99757.05
2022-08-05T20:36:22.364Z,99764.85
2022-08-05T20:41:27.028Z,99772.75
2022-08-05T20:50:05.430Z,99782.70
2022-08-05T20:55:55.097Z,99783.17
2022-08-05T21:00:51.888Z,99782.09
2022-08-05T21:05:57.365Z,99783.81
2022-08-05T21:11:01.641Z,99781.92
2022-08-05T21:16:30.810Z,99783.20
2022-08-05T21:21:44.232Z,99780.52
2022-08-05T21:26:58.306Z,99783.91
2022-08-05T21:32:02.666Z,99785.66
2022-08-05T21:37:13.836Z,99792.52
2022-08-05T21:42:40.881Z,99797.38
2022-08-05T21:47:56.355Z,99806.69
2022-08-05T21:53:04.549Z,99831.70
2022-08-05T21:58:24.935Z,99839.34
2022-08-05T22:04:14.337Z,99835.80
2022-08-05T22:09:21.110Z,99856.37
2022-08-05T22:14:37.324Z,99857.80
2022-08-05T22:20:02.501Z,99846.48
2022-08-05T22:25:31.025Z,99858.67
2022-08-05T22:30:56.810Z,99874.02
2022-08-05T22:36:23.992Z,99884.33
2022-08-05T22:42:09.591Z,99889.04
2022-08-05T22:52:47.314Z,99877.12
2022-08-05T22:57:57.281Z,99895.55
2022-08-05T23:03:00.995Z,99897.89
2022-08-05T23:08:12.154Z,99902.69
2022-08-05T23:13:16.683Z,99880.80
2022-08-05T23:18:25.546Z,99884.50
2022-08-05T23:23:39.179Z,99891.37
2022-08-05T23:28:43.259Z,99885.35
2022-08-05T23:34:05.323Z,99888.84
2022-08-05T23:39:08.802Z,99928.55
2022-08-05T23:44:11.345Z,99922.79
2022-08-05T23:56:32.800Z,99939.36
